createdAt,value
2022-08-29T00:02:32.081Z,27.10
2022-08-29T00:07:52.211Z,27.10
2022-08-29T00:13:12.445Z,27.10
2022-08-29T00:18:32.428Z,27.10
2022-08-29T00:23:52.706Z,27.00
2022-08-29T00:29:12.768Z,27.00
2022-08-29T00:34:32.860Z,27.00
2022-08-29T00:39:52.908Z,27.00
2022-08-29T00:45:13.007Z,27.00
2022-08-29T00:50:33.081Z,27.00
2022-08-29T00:55:53.129Z,27.00
2022-08-29T01:01:13.390Z,27.00
2022-08-29T01:06:33.553Z,27.00
2022-08-29T01:11:53.672Z,27.00
2022-08-29T01:17:13.777Z,27.00
2022-08-29T01:22:33.756Z,26.90
2022-08-29T01:27:53.934Z,27.00
2022-08-29T01:33:14.136Z,27.00
2022-08-29T01:38:34.422Z,27.00
2022-08-29T01:43:54.589Z,27.00
2022-08-29T01:49:14.671Z,27.00
2022-08-29T01:54:34.793Z,27.00
2022-08-29T01:59:55.014Z,27.00
2022-08-29T02:05:15.289Z,27.00
2022-08-29T02:10:35.273Z,26.90
2022-08-29T02:15:55.609Z,26.90
2022-08-29T02:21:15.823Z,26.90
2022-08-29T02:26:36.407Z,26.80
2022-08-29T02:31:56.492Z,26.90
2022-08-29T02:37:16.857Z,26.90
2022-08-29T02:42:36.916Z,26.90
2022-08-29T02:47:57.947Z,26.90
2022-08-29T02:53:17.926Z,26.90
2022-08-29T02:58:38.971Z,26.90
2022-08-29T03:03:59.129Z,26.90
2022-08-29T03:09:19.372Z,26.90
2022-08-29T03:14:39.482Z,26.90
2022-08-29T03:19:59.689Z,26.90
2022-08-29T03:25:19.793Z,26.80
2022-08-29T03:30:39.978Z,26.90
2022-08-29T03:36:00.034Z,26.80
2022-08-29T03:41:20.282Z,26.80
2022-08-29T03:46:40.520Z,26.80
2022-08-29T03:52:00.855Z,26.80
2022-08-29T03:57:20.933Z,26.80
2022-08-29T04:02:41.144Z,26.80
2022-08-29T04:08:01.186Z,26.80
2022-08-29T04:13:21.390Z,26.70
2022-08-29T04:18:41.468Z,26.80
2022-08-29T04:24:01.996Z,26.80
2022-08-29T04:29:22.194Z,26.80
2022-08-29T04:34:42.348Z,26.80
2022-08-29T04:40:02.496Z,26.80
2022-08-29T04:45:22.598Z,26.90
2022-08-29T04:50:42.795Z,26.90
2022-08-29T04:56:02.839Z,27.00
2022-08-29T05:01:23.081Z,27.00
2022-08-29T05:06:43.159Z,27.00
2022-08-29T05:12:07.091Z,27.00
2022-08-29T05:17:29.771Z,27.00
2022-08-29T05:22:50.061Z,27.10
2022-08-29T05:28:10.190Z,27.10
2022-08-29T05:33:30.391Z,27.10
2022-08-29T05:38:50.527Z,27.20
2022-08-29T05:44:10.728Z,27.20
2022-08-29T05:49:30.928Z,27.20
2022-08-29T05:54:51.083Z,27.20
2022-08-29T06:00:12.079Z,27.20
2022-08-29T06:05:32.232Z,27.20
2022-08-29T06:10:52.408Z,27.20
2022-08-29T06:16:12.556Z,27.20
2022-08-29T06:21:32.632Z,27.10
2022-08-29T06:26:52.818Z,27.10
2022-08-29T06:32:12.963Z,27.10
2022-08-29T06:37:34.116Z,27.10
2022-08-29T06:42:54.266Z,27.00
2022-08-29T06:48:15.255Z,27.10
2022-08-29T06:53:37.371Z,27.10
2022-08-29T06:58:57.850Z,27.10
2022-08-29T07:04:20.699Z,27.10
2022-08-29T07:09:41.228Z,27.20
2022-08-29T07:15:01.280Z,27.20
2022-08-29T07:20:21.565Z,27.20
2022-08-29T07:25:41.569Z,27.20
2022-08-29T07:31:01.758Z,27.20
2022-08-29T07:36:21.808Z,27.20
2022-08-29T07:41:42.077Z,27.20
2022-08-29T07:47:02.145Z,27.10
2022-08-29T07:52:22.294Z,27.20
2022-08-29T07:57:42.310Z,27.20
2022-08-29T08:03:02.576Z,27.20
2022-08-29T08:08:22.596Z,27.20
2022-08-29T08:13:42.720Z,27.20
2022-08-29T08:19:02.769Z,27.10
2022-08-29T08:24:22.965Z,27.10
2022-08-29T08:29:43.176Z,27.10
2022-08-29T08:35:03.468Z,27.10
2022-08-29T08:40:23.616Z,27.10
2022-08-29T08:45:43.822Z,27.10
2022-08-29T08:51:05.811Z,27.10
2022-08-29T08:56:25.898Z,27.10
2022-08-29T09:01:46.012Z,27.10
2022-08-29T09:07:06.333Z,27.10
2022-08-29T09:12:26.331Z,27.10
2022-08-29T09:17:46.585Z,27.00
2022-08-29T09:23:06.729Z,27.00
2022-08-29T09:28:27.002Z,27.00
2022-08-29T09:33:50.744Z,27.00
2022-08-29T09:39:12.265Z,27.00
2022-08-29T09:44:32.439Z,27.00
2022-08-29T09:49:52.593Z,27.00
2022-08-29T09:55:12.818Z,27.10
2022-08-29T10:00:32.798Z,27.10
2022-08-29T10:05:52.908Z,27.10
2022-08-29T10:11:13.132Z,27.00
2022-08-29T10:16:33.342Z,27.00
2022-08-29T10:21:53.409Z,27.00
2022-08-29T10:27:13.462Z,26.90
2022-08-29T10:32:33.596Z,26.90
2022-08-29T10:37:53.853Z,26.90
2022-08-29T10:43:14.129Z,27.00
2022-08-29T10:48:34.206Z,27.00
2022-08-29T10:53:54.323Z,27.00
2022-08-29T10:59:14.440Z,27.00
2022-08-29T11:04:34.526Z,27.00
2022-08-29T11:09:54.684Z,26.90
2022-08-29T11:15:14.844Z,26.90
2022-08-29T11:20:34.967Z,26.90
2022-08-29T11:25:55.094Z,26.90
2022-08-29T11:31:15.393Z,26.90
2022-08-29T11:36:35.514Z,27.00
2022-08-29T11:41:58.434Z,27.00
2022-08-29T11:47:18.837Z,27.00
2022-08-29T11:52:38.991Z,27.00
2022-08-29T11:58:03.850Z,27.00
2022-08-29T12:03:28.685Z,27.00
2022-08-29T12:08:49.187Z,27.00
2022-08-29T12:14:09.301Z,27.00
2022-08-29T12:19:29.503Z,27.00
2022-08-29T12:24:57.216Z,26.90
2022-08-29T12:30:17.700Z,27.00
2022-08-29T12:35:37.947Z,27.00
2022-08-29T12:40:58.027Z,26.90
2022-08-29T12:46:18.251Z,26.90
2022-08-29T12:51:38.354Z,26.90
2022-08-29T12:56:58.397Z,27.00
2022-08-29T13:02:18.605Z,27.10
2022-08-29T13:07:38.692Z,27.10
2022-08-29T13:12:58.689Z,27.10
2022-08-29T13:18:18.924Z,27.10
2022-08-29T13:23:38.898Z,27.10
2022-08-29T13:28:59.117Z,27.10
2022-08-29T13:34:19.287Z,27.00
2022-08-29T13:39:41.445Z,27.10
2022-08-29T13:45:01.940Z,27.00
2022-08-29T13:50:22.140Z,27.00
2022-08-29T13:55:42.175Z,27.00
2022-08-29T14:01:29.461Z,27.00
2022-08-29T14:06:42.559Z,27.00
2022-08-29T14:12:02.757Z,27.10
2022-08-29T14:17:22.830Z,27.00
2022-08-29T14:22:43.020Z,27.10
2022-08-29T14:28:03.200Z,27.10
2022-08-29T14:33:23.356Z,27.20
2022-08-29T14:38:43.491Z,27.20
2022-08-29T14:44:03.829Z,27.20
2022-08-29T14:49:24.184Z,27.20
2022-08-29T14:54:44.704Z,27.20
2022-08-29T15:00:05.008Z,27.20
2022-08-29T15:05:25.424Z,27.20
2022-08-29T15:10:45.568Z,27.20
2022-08-29T15:16:05.835Z,27.20
2022-08-29T15:21:25.779Z,27.20
2022-08-29T15:26:46.051Z,27.20
2022-08-29T15:32:06.216Z,27.20
2022-08-29T15:37:26.439Z,27.20
2022-08-29T15:42:46.445Z,27.20
2022-08-29T15:48:06.596Z,27.20
2022-08-29T15:53:31.788Z,27.20
2022-08-29T15:58:51.816Z,27.20
2022-08-29T16:04:12.187Z,27.30
2022-08-29T16:09:32.216Z,27.30
2022-08-29T16:15:00.642Z,27.40
2022-08-29T16:20:21.469Z,27.30
2022-08-29T16:25:43.029Z,27.40
2022-08-29T16:31:04.451Z,27.30
2022-08-29T16:36:24.492Z,27.30
2022-08-29T16:41:44.636Z,27.30
2022-08-29T16:47:04.631Z,27.30
2022-08-29T16:52:24.857Z,27.30
2022-08-29T16:57:44.892Z,27.30
2022-08-29T17:03:05.064Z,27.30
2022-08-29T17:08:25.176Z,27.30
2022-08-29T17:13:45.303Z,27.20
2022-08-29T17:19:05.440Z,27.20
2022-08-29T17:24:25.749Z,27.20
2022-08-29T17:29:45.827Z,27.20
2022-08-29T17:35:06.063Z,27.20
2022-08-29T17:40:27.164Z,27.30
2022-08-29T17:45:47.443Z,27.30
2022-08-29T17:51:07.599Z,27.30
2022-08-29T17:56:27.690Z,27.30
2022-08-29T18:01:47.788Z,27.30
2022-08-29T18:07:07.984Z,27.30
2022-08-29T18:12:27.968Z,27.30
2022-08-29T18:17:48.189Z,27.30
2022-08-29T18:23:08.281Z,27.20
2022-08-29T18:28:28.641Z,27.20
2022-08-29T18:34:03.894Z,27.20
2022-08-29T18:39:24.010Z,27.30
2022-08-29T18:44:43.998Z,27.20
2022-08-29T18:50:04.205Z,27.30
2022-08-29T18:55:24.347Z,27.30
2022-08-29T19:00:45.233Z,27.30
2022-08-29T19:06:05.268Z,27.40
2022-08-29T19:11:25.476Z,27.40
2022-08-29T19:16:45.790Z,27.40
2022-08-29T19:22:05.879Z,27.40
2022-08-29T19:27:42.270Z,27.40
2022-08-29T19:33:03.263Z,27.30
2022-08-29T19:38:23.440Z,27.30
2022-08-29T19:43:43.545Z,27.30
2022-08-29T19:54:26.549Z,27.30
2022-08-29T19:59:46.635Z,27.20
2022-08-29T20:05:08.823Z,27.20
2022-08-29T20:10:30.606Z,27.20
2022-08-29T20:15:50.984Z,27.10
2022-08-29T20:21:10.940Z,27.10
2022-08-29T20:26:31.060Z,27.10
2022-08-29T20:31:51.210Z,27.10
2022-08-29T20:37:11.243Z,27.00
2022-08-29T20:42:31.279Z,27.00
2022-08-29T20:47:51.461Z,27.00
2022-08-29T20:53:12.860Z,27.00
2022-08-29T20:58:38.922Z,27.00
2022-08-29T21:03:59.123Z,27.00
2022-08-29T21:09:19.351Z,27.00
2022-08-29T21:14:39.437Z,27.00
2022-08-29T21:19:59.554Z,27.00
2022-08-29T21:25:19.694Z,27.00
2022-08-29T21:30:43.564Z,27.00
2022-08-29T21:36:05.571Z,27.00
2022-08-29T21:41:25.704Z,26.90
2022-08-29T21:46:45.928Z,26.90
2022-08-29T21:52:06.191Z,26.90
2022-08-29T21:57:26.518Z,26.90
2022-08-29T22:02:46.733Z,26.90
2022-08-29T22:08:06.881Z,26.90
2022-08-29T22:13:27.180Z,26.90
2022-08-29T22:18:47.313Z,26.90
2022-08-29T22:24:07.378Z,26.90
2022-08-29T22:29:27.508Z,26.90
2022-08-29T22:34:47.695Z,26.80
2022-08-29T22:40:07.931Z,26.90
2022-08-29T22:45:28.092Z,26.90
2022-08-29T22:50:52.030Z,26.90
2022-08-29T22:56:18.488Z,26.90
2022-08-29T23:01:38.627Z,26.90
2022-08-29T23:06:58.758Z,26.90
2022-08-29T23:12:18.800Z,26.80
2022-08-29T23:17:38.958Z,26.90
2022-08-29T23:22:59.098Z,26.90
2022-08-29T23:28:20.643Z,26.90
2022-08-29T23:33:40.892Z,26.90
2022-08-29T23:39:00.867Z,26.90
2022-08-29T23:44:20.939Z,26.80
2022-08-29T23:49:40.983Z,26.90
2022-08-29T23:55:02.244Z,26.80
